sensor_id;sensor_type;location;lat;lon;timestamp;P1;durP1;ratioP1;P2;durP2;ratioP2
40555;SDS011;26250;45.422;11.100;2023-05-07T18:00:12;7.88;;;7.05;;
40555;SDS011;26250;45.422;11.100;2023-05-07T18:02:40;6.97;;;6.38;;
40555;SDS011;26250;45.422;11.100;2023-05-07T18:05:07;7.65;;;6.50;;
40555;SDS011;26250;45.422;11.100;2023-05-07T18:07:34;10.35;;;7.68;;
40555;SDS011;26250;45.422;11.100;2023-05-07T18:10:01;10.27;;;7.93;;
40555;SDS011;26250;45.422;11.100;2023-05-07T18:12:28;9.63;;;8.23;;
40555;SDS011;26250;45.422;11.100;2023-05-07T18:14:55;7.50;;;6.75;;
40555;SDS011;26250;45.422;11.100;2023-05-07T18:17:22;8.63;;;7.75;;
40555;SDS011;26250;45.422;11.100;2023-05-07T18:19:49;8.70;;;7.90;;
40555;SDS011;26250;45.422;11.100;2023-05-07T18:22:20;28.95;;;8.15;;
40555;SDS011;26250;45.422;11.100;2023-05-07T18:24:47;9.27;;;8.07;;
40555;SDS011;26250;45.422;11.100;2023-05-07T18:27:14;11.45;;;9.18;;
40555;SDS011;26250;45.422;11.100;2023-05-07T18:29:41;8.52;;;7.78;;
40555;SDS011;26250;45.422;11.100;2023-05-07T18:32:08;9.55;;;8.70;;
40555;SDS011;26250;45.422;11.100;2023-05-07T18:34:35;7.55;;;6.60;;
40555;SDS011;26250;45.422;11.100;2023-05-07T18:37:02;10.25;;;7.72;;
40555;SDS011;26250;45.422;11.100;2023-05-07T18:39:29;9.00;;;6.50;;
40555;SDS011;26250;45.422;11.100;2023-05-07T18:42:00;10.57;;;8.02;;
40555;SDS011;26250;45.422;11.100;2023-05-07T18:44:26;22.90;;;9.13;;
40555;SDS011;26250;45.422;11.100;2023-05-07T18:46:53;13.45;;;7.90;;
40555;SDS011;26250;45.422;11.100;2023-05-07T18:49:20;13.60;;;8.80;;
40555;SDS011;26250;45.422;11.100;2023-05-07T18:51:47;10.32;;;8.48;;
40555;SDS011;26250;45.422;11.100;2023-05-07T18:54:14;9.30;;;8.00;;
40555;SDS011;26250;45.422;11.100;2023-05-07T18:56:41;9.32;;;7.63;;
40555;SDS011;26250;45.422;11.100;2023-05-07T18:59:08;11.10;;;7.60;;
40555;SDS011;26250;45.422;11.100;2023-05-07T19:01:35;23.90;;;12.68;;
40555;SDS011;26250;45.422;11.100;2023-05-07T19:04:02;12.68;;;10.98;;
40555;SDS011;26250;45.422;11.100;2023-05-07T19:06:29;13.40;;;11.20;;
40555;SDS011;26250;45.422;11.100;2023-05-07T19:08:58;13.48;;;12.23;;
40555;SDS011;26250;45.422;11.100;2023-05-07T19:11:25;13.93;;;12.52;;
40555;SDS011;26250;45.422;11.100;2023-05-07T19:13:55;14.80;;;13.23;;
40555;SDS011;26250;45.422;11.100;2023-05-07T19:16:22;13.93;;;12.20;;
40555;SDS011;26250;45.422;11.100;2023-05-07T19:18:49;13.52;;;11.88;;
40555;SDS011;26250;45.422;11.100;2023-05-07T19:21:16;12.23;;;11.07;;
40555;SDS011;26250;45.422;11.100;2023-05-07T19:23:43;13.25;;;11.82;;
40555;SDS011;26250;45.422;11.100;2023-05-07T19:26:11;12.57;;;11.20;;
40555;SDS011;26250;45.422;11.100;2023-05-07T19:28:38;14.38;;;12.23;;
40555;SDS011;26250;45.422;11.100;2023-05-07T19:31:17;13.05;;;11.75;;
40555;SDS011;26250;45.422;11.100;2023-05-07T19:33:47;15.93;;;12.00;;
40555;SDS011;26250;45.422;11.100;2023-05-07T19:36:14;15.93;;;13.48;;
40555;SDS011;26250;45.422;11.100;2023-05-07T19:38:42;13.13;;;11.73;;
40555;SDS011;26250;45.422;11.100;2023-05-07T19:41:10;15.50;;;10.25;;
40555;SDS011;26250;45.422;11.100;2023-05-07T19:43:38;14.70;;;11.70;;
40555;SDS011;26250;45.422;11.100;2023-05-07T19:46:05;17.00;;;11.85;;
40555;SDS011;26250;45.422;11.100;2023-05-07T19:48:32;21.17;;;13.70;;
40555;SDS011;26250;45.422;11.100;2023-05-07T19:50:58;15.38;;;13.68;;
40555;SDS011;26250;45.422;11.100;2023-05-07T19:53:26;18.27;;;13.70;;
40555;SDS011;26250;45.422;11.100;2023-05-07T19:56:04;13.98;;;12.77;;
40555;SDS011;26250;45.422;11.100;2023-05-07T19:58:33;14.40;;;13.02;;
40555;SDS011;26250;45.422;11.100;2023-05-07T20:01:01;16.92;;;15.10;;
40555;SDS011;26250;45.422;11.100;2023-05-07T20:03:32;17.30;;;15.63;;
40555;SDS011;26250;45.422;11.100;2023-05-07T20:05:59;16.13;;;14.02;;
